sensor_id;sensor_type;location;lat;lon;timestamp;temperature;humidity
20035;DHT22;10178;48.034;9.800;2022-08-19T00:02:25;22.10;99.90
20035;DHT22;10178;48.034;9.800;2022-08-19T00:04:51;21.10;99.90
20035;DHT22;10178;48.034;9.800;2022-08-19T00:07:18;20.30;99.90
20035;DHT22;10178;48.034;9.800;2022-08-19T00:09:44;19.80;99.90
20035;DHT22;10178;48.034;9.800;2022-08-19T00:12:11;20.10;99.90
20035;DHT22;10178;48.034;9.800;2022-08-19T00:14:37;20.70;99.90
20035;DHT22;10178;48.034;9.800;2022-08-19T00:17:05;21.10;99.90
20035;DHT22;10178;48.034;9.800;2022-08-19T00:19:32;20.10;99.90
20035;DHT22;10178;48.034;9.800;2022-08-19T00:21:58;19.90;99.90
20035;DHT22;10178;48.034;9.800;2022-08-19T00:24:25;20.00;99.90
20035;DHT22;10178;48.034;9.800;2022-08-19T00:26:51;19.50;99.90
20035;DHT22;10178;48.034;9.800;2022-08-19T00:29:22;19.30;99.90
20035;DHT22;10178;48.034;9.800;2022-08-19T00:31:49;19.80;99.90
20035;DHT22;10178;48.034;9.800;2022-08-19T00:34:18;20.00;99.90
20035;DHT22;10178;48.034;9.800;2022-08-19T00:36:45;20.40;99.90
20035;DHT22;10178;48.034;9.800;2022-08-19T00:39:11;20.90;99.90
20035;DHT22;10178;48.034;9.800;2022-08-19T00:41:38;21.30;99.90
20035;DHT22;10178;48.034;9.800;2022-08-19T00:44:07;21.60;99.90
20035;DHT22;10178;48.034;9.800;2022-08-19T00:46:36;21.70;99.90
20035;DHT22;10178;48.034;9.800;2022-08-19T00:49:09;21.70;99.90
20035;DHT22;10178;48.034;9.800;2022-08-19T00:51:35;21.80;99.90
20035;DHT22;10178;48.034;9.800;2022-08-19T00:54:02;21.90;99.90
20035;DHT22;10178;48.034;9.800;2022-08-19T00:56:28;21.90;99.90
20035;DHT22;10178;48.034;9.800;2022-08-19T00:58:59;22.00;99.90
20035;DHT22;10178;48.034;9.800;2022-08-19T01:01:27;22.00;99.90
20035;DHT22;10178;48.034;9.800;2022-08-19T01:03:53;22.00;99.90
20035;DHT22;10178;48.034;9.800;2022-08-19T01:06:19;22.00;99.90
20035;DHT22;10178;48.034;9.800;2022-08-19T01:08:44;22.00;99.90
20035;DHT22;10178;48.034;9.800;2022-08-19T01:11:10;22.00;99.90
20035;DHT22;10178;48.034;9.800;2022-08-19T01:13:37;21.90;99.90
20035;DHT22;10178;48.034;9.800;2022-08-19T01:16:07;21.90;99.90
20035;DHT22;10178;48.034;9.800;2022-08-19T01:18:38;22.00;99.90
20035;DHT22;10178;48.034;9.800;2022-08-19T01:21:26;22.00;99.90
20035;DHT22;10178;48.034;9.800;2022-08-19T01:23:54;22.00;99.90
20035;DHT22;10178;48.034;9.800;2022-08-19T01:26:23;22.00;99.90
20035;DHT22;10178;48.034;9.800;2022-08-19T01:28:52;21.90;99.90
20035;DHT22;10178;48.034;9.800;2022-08-19T01:31:22;21.90;99.90
20035;DHT22;10178;48.034;9.800;2022-08-19T01:33:49;21.90;99.90
20035;DHT22;10178;48.034;9.800;2022-08-19T01:38:57;21.80;99.90
20035;DHT22;10178;48.034;9.800;2022-08-19T01:41:23;21.80;99.90
20035;DHT22;10178;48.034;9.800;2022-08-19T01:43:50;21.80;99.90
20035;DHT22;10178;48.034;9.800;2022-08-19T01:46:17;21.80;99.90
20035;DHT22;10178;48.034;9.800;2022-08-19T01:48:43;21.80;99.90
20035;DHT22;10178;48.034;9.800;2022-08-19T01:51:10;21.80;99.90
20035;DHT22;10178;48.034;9.800;2022-08-19T01:53:36;21.80;99.90
20035;DHT22;10178;48.034;9.800;2022-08-19T01:56:03;21.70;99.90
20035;DHT22;10178;48.034;9.800;2022-08-19T01:58:41;21.70;99.90
20035;DHT22;10178;48.034;9.800;2022-08-19T02:01:08;21.70;99.90
20035;DHT22;10178;48.034;9.800;2022-08-19T02:03:34;21.70;99.90
20035;DHT22;10178;48.034;9.800;2022-08-19T02:06:01;21.40;99.90
20035;DHT22;10178;48.034;9.800;2022-08-19T02:08:29;21.40;99.90
20035;DHT22;10178;48.034;9.800;2022-08-19T02:10:56;21.50;99.90
20035;DHT22;10178;48.034;9.800;2022-08-19T02:13:22;21.60;99.90
20035;DHT22;10178;48.034;9.800;2022-08-19T02:15:48;21.60;99.90
20035;DHT22;10178;48.034;9.800;2022-08-19T02:18:14;21.60;99.90
20035;DHT22;10178;48.034;9.800;2022-08-19T02:20:41;21.70;99.90
20035;DHT22;10178;48.034;9.800;2022-08-19T02:23:08;21.10;99.90
20035;DHT22;10178;48.034;9.800;2022-08-19T02:25:33;21.20;99.90
20035;DHT22;10178;48.034;9.800;2022-08-19T02:27:59;21.30;99.90
20035;DHT22;10178;48.034;9.800;2022-08-19T02:30:25;21.30;99.90
20035;DHT22;10178;48.034;9.800;2022-08-19T02:32:51;20.90;99.90
20035;DHT22;10178;48.034;9.800;2022-08-19T02:35:17;20.40;99.90
20035;DHT22;10178;48.034;9.800;2022-08-19T02:37:44;20.20;99.90
20035;DHT22;10178;48.034;9.800;2022-08-19T02:40:29;19.40;99.90
20035;DHT22;10178;48.034;9.800;2022-08-19T02:42:57;19.10;99.90
20035;DHT22;10178;48.034;9.800;2022-08-19T02:45:23;19.00;99.90
20035;DHT22;10178;48.034;9.800;2022-08-19T02:47:48;18.90;99.90
20035;DHT22;10178;48.034;9.800;2022-08-19T02:50:14;19.50;99.90
20035;DHT22;10178;48.034;9.800;2022-08-19T02:52:40;20.10;99.90
20035;DHT22;10178;48.034;9.800;2022-08-19T02:55:06;20.50;99.90
20035;DHT22;10178;48.034;9.800;2022-08-19T02:57:32;20.80;99.90
20035;DHT22;10178;48.034;9.800;2022-08-19T02:59:59;21.00;99.90
20035;DHT22;10178;48.034;9.800;2022-08-19T03:02:26;21.20;99.90
20035;DHT22;10178;48.034;9.800;2022-08-19T03:04:52;21.30;99.90
20035;DHT22;10178;48.034;9.800;2022-08-19T03:07:18;21.30;99.90
20035;DHT22;10178;48.034;9.800;2022-08-19T03:09:44;21.40;99.90
20035;DHT22;10178;48.034;9.800;2022-08-19T03:12:10;21.40;99.90
20035;DHT22;10178;48.034;9.800;2022-08-19T03:14:36;21.40;99.90
20035;DHT22;10178;48.034;9.800;2022-08-19T03:17:03;21.20;99.90
20035;DHT22;10178;48.034;9.800;2022-08-19T03:19:30;20.80;99.90
20035;DHT22;10178;48.034;9.800;2022-08-19T03:21:57;20.90;99.90
20035;DHT22;10178;48.034;9.800;2022-08-19T03:24:23;21.10;99.90
20035;DHT22;10178;48.034;9.800;2022-08-19T03:26:52;21.20;99.90
20035;DHT22;10178;48.034;9.800;2022-08-19T03:29:18;21.30;99.90
20035;DHT22;10178;48.034;9.800;2022-08-19T03:31:44;20.10;99.90
20035;DHT22;10178;48.034;9.800;2022-08-19T03:34:13;20.10;99.90
20035;DHT22;10178;48.034;9.800;2022-08-19T03:36:39;20.50;99.90
20035;DHT22;10178;48.034;9.800;2022-08-19T03:39:05;20.40;99.90
20035;DHT22;10178;48.034;9.800;2022-08-19T03:41:35;19.60;99.90
20035;DHT22;10178;48.034;9.800;2022-08-19T03:44:02;19.10;99.90
20035;DHT22;10178;48.034;9.800;2022-08-19T03:46:30;18.10;99.90
20035;DHT22;10178;48.034;9.800;2022-08-19T03:48:59;17.80;99.90
20035;DHT22;10178;48.034;9.800;2022-08-19T03:51:35;18.00;99.90
20035;DHT22;10178;48.034;9.800;2022-08-19T03:54:03;18.30;99.90
20035;DHT22;10178;48.034;9.800;2022-08-19T03:56:30;18.20;99.90
20035;DHT22;10178;48.034;9.800;2022-08-19T03:58:57;18.40;99.90
20035;DHT22;10178;48.034;9.800;2022-08-19T04:01:25;18.40;99.90
20035;DHT22;10178;48.034;9.800;2022-08-19T04:03:56;18.40;99.90
20035;DHT22;10178;48.034;9.800;2022-08-19T04:06:30;18.70;99.90
20035;DHT22;10178;48.034;9.800;2022-08-19T04:08:58;19.40;99.90
20035;DHT22;10178;48.034;9.800;2022-08-19T04:11:34;19.90;99.90
20035;DHT22;10178;48.034;9.800;2022-08-19T04:14:01;20.30;99.90
20035;DHT22;10178;48.034;9.800;2022-08-19T04:16:27;20.50;99.90
20035;DHT22;10178;48.034;9.800;2022-08-19T04:18:59;20.70;99.90
20035;DHT22;10178;48.034;9.800;2022-08-19T04:21:26;20.80;99.90
20035;DHT22;10178;48.034;9.800;2022-08-19T04:23:53;20.80;99.90
20035;DHT22;10178;48.034;9.800;2022-08-19T04:26:32;20.90;99.90
20035;DHT22;10178;48.034;9.800;2022-08-19T04:29:06;20.90;99.90
20035;DHT22;10178;48.034;9.800;2022-08-19T04:31:32;21.00;99.90
20035;DHT22;10178;48.034;9.800;2022-08-19T04:34:05;21.00;99.90
20035;DHT22;10178;48.034;9.800;2022-08-19T04:36:34;21.00;99.90
20035;DHT22;10178;48.034;9.800;2022-08-19T04:39:07;21.00;99.90
20035;DHT22;10178;48.034;9.800;2022-08-19T04:41:33;21.00;99.90
20035;DHT22;10178;48.034;9.800;2022-08-19T04:44:18;21.00;99.90
20035;DHT22;10178;48.034;9.800;2022-08-19T04:46:45;20.70;99.90
20035;DHT22;10178;48.034;9.800;2022-08-19T04:49:13;20.70;99.90
20035;DHT22;10178;48.034;9.800;2022-08-19T04:51:41;20.70;99.90
20035;DHT22;10178;48.034;9.800;2022-08-19T04:54:07;20.70;99.90
20035;DHT22;10178;48.034;9.800;2022-08-19T04:56:33;20.80;99.90
20035;DHT22;10178;48.034;9.800;2022-08-19T04:58:59;20.90;99.90
20035;DHT22;10178;48.034;9.800;2022-08-19T05:01:29;21.00;99.90
20035;DHT22;10178;48.034;9.800;2022-08-19T05:03:57;21.00;99.90
20035;DHT22;10178;48.034;9.800;2022-08-19T05:06:23;21.00;99.90
20035;DHT22;10178;48.034;9.800;2022-08-19T05:08:50;21.00;99.90
20035;DHT22;10178;48.034;9.800;2022-08-19T05:11:20;21.00;99.90
20035;DHT22;10178;48.034;9.800;2022-08-19T05:13:47;21.00;99.90
20035;DHT22;10178;48.034;9.800;2022-08-19T05:16:16;21.00;99.90
20035;DHT22;10178;48.034;9.800;2022-08-19T05:18:43;21.00;99.90
20035;DHT22;10178;48.034;9.800;2022-08-19T05:21:27;20.30;99.90
20035;DHT22;10178;48.034;9.800;2022-08-19T05:24:11;19.60;99.90
20035;DHT22;10178;48.034;9.800;2022-08-19T05:26:40;19.30;99.90
20035;DHT22;10178;48.034;9.800;2022-08-19T05:29:07;19.50;99.90
20035;DHT22;10178;48.034;9.800;2022-08-19T05:31:34;19.20;99.90
20035;DHT22;10178;48.034;9.800;2022-08-19T05:34:01;18.70;99.90
20035;DHT22;10178;48.034;9.800;2022-08-19T05:36:28;18.20;99.90
20035;DHT22;10178;48.034;9.800;2022-08-19T05:38:54;18.10;99.90
20035;DHT22;10178;48.034;9.800;2022-08-19T05:41:20;18.50;99.90
20035;DHT22;10178;48.034;9.800;2022-08-19T05:43:48;18.50;99.90
20035;DHT22;10178;48.034;9.800;2022-08-19T05:46:17;18.90;99.90
20035;DHT22;10178;48.034;9.800;2022-08-19T05:48:44;19.50;99.90
20035;DHT22;10178;48.034;9.800;2022-08-19T05:51:09;19.90;99.90
20035;DHT22;10178;48.034;9.800;2022-08-19T05:53:35;20.30;99.90
20035;DHT22;10178;48.034;9.800;2022-08-19T05:56:11;20.50;99.90
20035;DHT22;10178;48.034;9.800;2022-08-19T05:58:37;20.60;99.90
20035;DHT22;10178;48.034;9.800;2022-08-19T06:01:08;20.60;99.90
20035;DHT22;10178;48.034;9.800;2022-08-19T06:03:35;20.70;99.90
20035;DHT22;10178;48.034;9.800;2022-08-19T06:06:03;20.50;99.90
20035;DHT22;10178;48.034;9.800;2022-08-19T06:08:29;19.90;99.90
20035;DHT22;10178;48.034;9.800;2022-08-19T06:10:55;19.60;99.90
20035;DHT22;10178;48.034;9.800;2022-08-19T06:13:21;19.30;99.90
20035;DHT22;10178;48.034;9.800;2022-08-19T06:15:48;19.20;99.90
20035;DHT22;10178;48.034;9.800;2022-08-19T06:18:16;19.70;99.90
20035;DHT22;10178;48.034;9.800;2022-08-19T06:20:42;20.00;99.90
20035;DHT22;10178;48.034;9.800;2022-08-19T06:23:08;20.40;99.90
20035;DHT22;10178;48.034;9.800;2022-08-19T06:25:34;20.50;99.90
20035;DHT22;10178;48.034;9.800;2022-08-19T06:28:00;20.60;99.90
20035;DHT22;10178;48.034;9.800;2022-08-19T06:30:26;20.70;99.90
20035;DHT22;10178;48.034;9.800;2022-08-19T06:32:52;20.80;99.90
20035;DHT22;10178;48.034;9.800;2022-08-19T06:35:18;20.80;99.90
20035;DHT22;10178;48.034;9.800;2022-08-19T06:37:44;20.80;99.90
20035;DHT22;10178;48.034;9.800;2022-08-19T06:40:10;20.80;99.90
20035;DHT22;10178;48.034;9.800;2022-08-19T06:42:36;20.80;99.90
20035;DHT22;10178;48.034;9.800;2022-08-19T06:45:07;20.80;99.90
20035;DHT22;10178;48.034;9.800;2022-08-19T06:47:33;20.80;99.90
20035;DHT22;10178;48.034;9.800;2022-08-19T06:50:00;20.90;99.90
20035;DHT22;10178;48.034;9.800;2022-08-19T06:52:29;20.90;99.90
20035;DHT22;10178;48.034;9.800;2022-08-19T06:54:55;20.90;99.90
20035;DHT22;10178;48.034;9.800;2022-08-19T06:57:22;20.90;99.90
20035;DHT22;10178;48.034;9.800;2022-08-19T06:59:48;20.90;99.90
20035;DHT22;10178;48.034;9.800;2022-08-19T07:02:13;20.90;99.90
20035;DHT22;10178;48.034;9.800;2022-08-19T07:04:39;20.90;99.90
20035;DHT22;10178;48.034;9.800;2022-08-19T07:07:11;20.90;99.90
20035;DHT22;10178;48.034;9.800;2022-08-19T07:09:41;20.90;99.90
20035;DHT22;10178;48.034;9.800;2022-08-19T07:12:09;20.90;99.90
20035;DHT22;10178;48.034;9.800;2022-08-19T07:14:37;20.80;99.90
20035;DHT22;10178;48.034;9.800;2022-08-19T07:17:10;20.80;99.90
20035;DHT22;10178;48.034;9.800;2022-08-19T07:19:37;20.80;99.90
20035;DHT22;10178;48.034;9.800;2022-08-19T07:22:05;20.80;99.90
20035;DHT22;10178;48.034;9.800;2022-08-19T07:24:32;20.80;99.90
20035;DHT22;10178;48.034;9.800;2022-08-19T07:27:00;20.80;99.90
20035;DHT22;10178;48.034;9.800;2022-08-19T07:29:29;20.80;99.90
20035;DHT22;10178;48.034;9.800;2022-08-19T07:31:56;20.80;99.90
20035;DHT22;10178;48.034;9.800;2022-08-19T07:34:24;20.80;99.90
20035;DHT22;10178;48.034;9.800;2022-08-19T07:36:51;20.80;99.90
20035;DHT22;10178;48.034;9.800;2022-08-19T07:39:20;20.80;99.90
20035;DHT22;10178;48.034;9.800;2022-08-19T07:41:47;20.80;99.90
20035;DHT22;10178;48.034;9.800;2022-08-19T07:44:14;20.80;99.90
20035;DHT22;10178;48.034;9.800;2022-08-19T07:46:46;20.80;99.90
20035;DHT22;10178;48.034;9.800;2022-08-19T07:49:13;20.70;99.90
20035;DHT22;10178;48.034;9.800;2022-08-19T07:51:46;20.60;99.90
20035;DHT22;10178;48.034;9.800;2022-08-19T07:54:13;19.90;99.90
20035;DHT22;10178;48.034;9.800;2022-08-19T07:56:39;18.80;99.90
20035;DHT22;10178;48.034;9.800;2022-08-19T07:59:05;18.40;99.90
20035;DHT22;10178;48.034;9.800;2022-08-19T08:01:31;18.40;99.90
20035;DHT22;10178;48.034;9.800;2022-08-19T08:03:57;18.80;99.90
20035;DHT22;10178;48.034;9.800;2022-08-19T08:06:42;19.00;99.90
20035;DHT22;10178;48.034;9.800;2022-08-19T08:09:33;19.10;99.90
20035;DHT22;10178;48.034;9.800;2022-08-19T08:12:13;19.30;99.90
20035;DHT22;10178;48.034;9.800;2022-08-19T08:17:10;19.70;99.90
20035;DHT22;10178;48.034;9.800;2022-08-19T08:19:36;19.90;99.90
20035;DHT22;10178;48.034;9.800;2022-08-19T08:22:03;20.00;99.90
20035;DHT22;10178;48.034;9.800;2022-08-19T08:24:32;20.20;99.90
20035;DHT22;10178;48.034;9.800;2022-08-19T08:26:59;20.20;99.90
20035;DHT22;10178;48.034;9.800;2022-08-19T08:29:30;20.30;99.90
20035;DHT22;10178;48.034;9.800;2022-08-19T08:31:56;20.40;99.90
20035;DHT22;10178;48.034;9.800;2022-08-19T08:34:23;20.40;99.90
20035;DHT22;10178;48.034;9.800;2022-08-19T08:36:49;20.40;99.90
20035;DHT22;10178;48.034;9.800;2022-08-19T08:39:17;20.40;99.90
20035;DHT22;10178;48.034;9.800;2022-08-19T08:42:01;20.40;99.90
20035;DHT22;10178;48.034;9.800;2022-08-19T08:45:00;20.40;99.90
20035;DHT22;10178;48.034;9.800;2022-08-19T08:47:30;20.50;99.90
20035;DHT22;10178;48.034;9.800;2022-08-19T08:50:12;20.50;99.90
20035;DHT22;10178;48.034;9.800;2022-08-19T08:52:44;20.50;99.90
20035;DHT22;10178;48.034;9.800;2022-08-19T08:55:15;20.50;99.90
20035;DHT22;10178;48.034;9.800;2022-08-19T09:00:36;20.50;99.90
20035;DHT22;10178;48.034;9.800;2022-08-19T09:03:03;20.50;99.90
20035;DHT22;10178;48.034;9.800;2022-08-19T09:11:15;20.60;99.90
20035;DHT22;10178;48.034;9.800;2022-08-19T09:13:49;20.50;99.90
20035;DHT22;10178;48.034;9.800;2022-08-19T09:16:20;20.50;99.90
20035;DHT22;10178;48.034;9.800;2022-08-19T09:18:53;20.50;99.90
20035;DHT22;10178;48.034;9.800;2022-08-19T09:21:21;20.60;99.90
20035;DHT22;10178;48.034;9.800;2022-08-19T09:23:51;20.60;99.90
20035;DHT22;10178;48.034;9.800;2022-08-19T09:26:19;20.60;99.90
20035;DHT22;10178;48.034;9.800;2022-08-19T09:28:47;20.50;99.90
20035;DHT22;10178;48.034;9.800;2022-08-19T09:31:25;20.60;99.90
20035;DHT22;10178;48.034;9.800;2022-08-19T09:33:52;20.60;99.90
20035;DHT22;10178;48.034;9.800;2022-08-19T09:36:20;20.70;99.90
20035;DHT22;10178;48.034;9.800;2022-08-19T09:38:47;20.70;99.90
20035;DHT22;10178;48.034;9.800;2022-08-19T09:41:16;20.70;99.90
20035;DHT22;10178;48.034;9.800;2022-08-19T09:43:45;20.70;99.90
20035;DHT22;10178;48.034;9.800;2022-08-19T09:46:11;20.70;99.90
20035;DHT22;10178;48.034;9.800;2022-08-19T09:48:41;20.70;99.90
20035;DHT22;10178;48.034;9.800;2022-08-19T09:51:12;20.70;99.90
20035;DHT22;10178;48.034;9.800;2022-08-19T09:53:42;20.70;99.90
20035;DHT22;10178;48.034;9.800;2022-08-19T09:56:09;20.70;99.90
20035;DHT22;10178;48.034;9.800;2022-08-19T09:58:36;20.60;99.90
20035;DHT22;10178;48.034;9.800;2022-08-19T10:01:03;20.70;99.90
20035;DHT22;10178;48.034;9.800;2022-08-19T10:03:30;20.70;99.90
20035;DHT22;10178;48.034;9.800;2022-08-19T10:05:58;20.70;99.90
20035;DHT22;10178;48.034;9.800;2022-08-19T10:08:29;20.70;99.90
20035;DHT22;10178;48.034;9.800;2022-08-19T10:10:55;20.70;99.90
20035;DHT22;10178;48.034;9.800;2022-08-19T10:13:24;20.60;99.90
20035;DHT22;10178;48.034;9.800;2022-08-19T10:15:52;20.60;99.90
20035;DHT22;10178;48.034;9.800;2022-08-19T10:18:20;20.60;99.90
20035;DHT22;10178;48.034;9.800;2022-08-19T10:20:48;20.60;99.90
20035;DHT22;10178;48.034;9.800;2022-08-19T10:23:14;20.60;99.90
20035;DHT22;10178;48.034;9.800;2022-08-19T10:25:41;20.60;99.90
20035;DHT22;10178;48.034;9.800;2022-08-19T10:28:08;20.60;99.90
20035;DHT22;10178;48.034;9.800;2022-08-19T10:30:40;20.60;99.90
20035;DHT22;10178;48.034;9.800;2022-08-19T10:33:06;20.60;99.90
20035;DHT22;10178;48.034;9.800;2022-08-19T10:35:32;20.50;99.90
20035;DHT22;10178;48.034;9.800;2022-08-19T10:37:58;20.50;99.90
20035;DHT22;10178;48.034;9.800;2022-08-19T10:40:25;20.50;99.90
20035;DHT22;10178;48.034;9.800;2022-08-19T10:42:52;20.50;99.90
20035;DHT22;10178;48.034;9.800;2022-08-19T10:45:17;20.50;99.90
20035;DHT22;10178;48.034;9.800;2022-08-19T10:47:43;20.50;99.90
20035;DHT22;10178;48.034;9.800;2022-08-19T10:50:09;20.50;99.90
20035;DHT22;10178;48.034;9.800;2022-08-19T10:52:53;20.40;99.90
20035;DHT22;10178;48.034;9.800;2022-08-19T10:55:21;20.00;99.90
20035;DHT22;10178;48.034;9.800;2022-08-19T10:58:13;19.70;99.90
20035;DHT22;10178;48.034;9.800;2022-08-19T11:00:40;19.40;99.90
20035;DHT22;10178;48.034;9.800;2022-08-19T11:03:06;19.20;99.90
20035;DHT22;10178;48.034;9.800;2022-08-19T11:05:31;19.00;99.90
20035;DHT22;10178;48.034;9.800;2022-08-19T11:07:57;18.80;99.90
20035;DHT22;10178;48.034;9.800;2022-08-19T11:10:23;18.80;99.90
20035;DHT22;10178;48.034;9.800;2022-08-19T11:12:49;18.90;99.90
20035;DHT22;10178;48.034;9.800;2022-08-19T11:15:18;19.10;99.90
20035;DHT22;10178;48.034;9.800;2022-08-19T11:17:43;19.30;99.90
20035;DHT22;10178;48.034;9.800;2022-08-19T11:20:11;19.60;99.90
20035;DHT22;10178;48.034;9.800;2022-08-19T11:22:37;19.70;99.90
20035;DHT22;10178;48.034;9.800;2022-08-19T11:25:03;19.90;99.90
20035;DHT22;10178;48.034;9.800;2022-08-19T11:27:30;20.00;99.90
20035;DHT22;10178;48.034;9.800;2022-08-19T11:29:55;20.00;99.90
20035;DHT22;10178;48.034;9.800;2022-08-19T11:32:21;20.00;99.90
20035;DHT22;10178;48.034;9.800;2022-08-19T11:34:47;20.10;99.90
20035;DHT22;10178;48.034;9.800;2022-08-19T11:37:12;20.10;99.90
20035;DHT22;10178;48.034;9.800;2022-08-19T11:39:38;20.20;99.90
20035;DHT22;10178;48.034;9.800;2022-08-19T11:42:05;19.80;99.90
20035;DHT22;10178;48.034;9.800;2022-08-19T11:44:51;19.90;99.90
20035;DHT22;10178;48.034;9.800;2022-08-19T11:47:17;19.70;99.90
20035;DHT22;10178;48.034;9.800;2022-08-19T11:49:43;19.80;99.90
20035;DHT22;10178;48.034;9.800;2022-08-19T11:52:08;20.00;99.90
20035;DHT22;10178;48.034;9.800;2022-08-19T11:54:34;19.50;99.90
20035;DHT22;10178;48.034;9.800;2022-08-19T11:57:02;19.60;99.90
20035;DHT22;10178;48.034;9.800;2022-08-19T11:59:28;19.70;99.90
20035;DHT22;10178;48.034;9.800;2022-08-19T12:01:54;19.70;99.90
20035;DHT22;10178;48.034;9.800;2022-08-19T12:04:23;19.80;99.90
20035;DHT22;10178;48.034;9.800;2022-08-19T12:06:49;19.80;99.90
20035;DHT22;10178;48.034;9.800;2022-08-19T12:09:15;19.90;99.90
20035;DHT22;10178;48.034;9.800;2022-08-19T12:11:41;20.00;99.90
20035;DHT22;10178;48.034;9.800;2022-08-19T12:14:10;20.10;99.90
20035;DHT22;10178;48.034;9.800;2022-08-19T12:16:36;20.10;99.90
20035;DHT22;10178;48.034;9.800;2022-08-19T12:19:04;20.20;99.90
20035;DHT22;10178;48.034;9.800;2022-08-19T12:21:31;20.20;99.90
20035;DHT22;10178;48.034;9.800;2022-08-19T12:23:59;20.20;99.90
20035;DHT22;10178;48.034;9.800;2022-08-19T12:26:27;20.20;99.90
20035;DHT22;10178;48.034;9.800;2022-08-19T12:28:53;20.20;99.90
20035;DHT22;10178;48.034;9.800;2022-08-19T12:31:19;20.30;99.90
20035;DHT22;10178;48.034;9.800;2022-08-19T12:33:45;20.30;99.90
20035;DHT22;10178;48.034;9.800;2022-08-19T12:36:14;20.30;99.90
20035;DHT22;10178;48.034;9.800;2022-08-19T12:38:41;20.20;99.90
20035;DHT22;10178;48.034;9.800;2022-08-19T12:41:08;20.10;99.90
20035;DHT22;10178;48.034;9.800;2022-08-19T12:43:34;20.10;99.90
20035;DHT22;10178;48.034;9.800;2022-08-19T12:46:00;20.20;99.90
20035;DHT22;10178;48.034;9.800;2022-08-19T12:48:26;20.30;99.90
20035;DHT22;10178;48.034;9.800;2022-08-19T12:50:52;20.30;99.90
20035;DHT22;10178;48.034;9.800;2022-08-19T12:53:19;20.30;99.90
20035;DHT22;10178;48.034;9.800;2022-08-19T12:55:45;20.40;99.90
20035;DHT22;10178;48.034;9.800;2022-08-19T12:58:11;20.40;99.90
20035;DHT22;10178;48.034;9.800;2022-08-19T13:00:39;20.30;99.90
20035;DHT22;10178;48.034;9.800;2022-08-19T13:03:05;20.30;99.90
20035;DHT22;10178;48.034;9.800;2022-08-19T13:05:32;20.30;99.90
20035;DHT22;10178;48.034;9.800;2022-08-19T13:07:59;20.30;99.90
20035;DHT22;10178;48.034;9.800;2022-08-19T13:10:35;20.30;99.90
20035;DHT22;10178;48.034;9.800;2022-08-19T13:13:03;20.30;99.90
20035;DHT22;10178;48.034;9.800;2022-08-19T13:15:33;20.30;99.90
20035;DHT22;10178;48.034;9.800;2022-08-19T13:17:59;20.30;99.90
20035;DHT22;10178;48.034;9.800;2022-08-19T13:20:25;20.30;99.90
20035;DHT22;10178;48.034;9.800;2022-08-19T13:22:51;20.30;99.90
20035;DHT22;10178;48.034;9.800;2022-08-19T13:25:18;20.30;99.90
20035;DHT22;10178;48.034;9.800;2022-08-19T13:27:46;20.30;99.90
20035;DHT22;10178;48.034;9.800;2022-08-19T13:30:15;20.20;99.90
20035;DHT22;10178;48.034;9.800;2022-08-19T13:32:59;20.20;99.90
20035;DHT22;10178;48.034;9.800;2022-08-19T13:35:51;20.10;99.90
20035;DHT22;10178;48.034;9.800;2022-08-19T13:38:22;20.10;99.90
20035;DHT22;10178;48.034;9.800;2022-08-19T13:40:50;20.10;99.90
20035;DHT22;10178;48.034;9.800;2022-08-19T13:43:17;20.10;99.90
20035;DHT22;10178;48.034;9.800;2022-08-19T13:45:44;20.10;99.90
20035;DHT22;10178;48.034;9.800;2022-08-19T13:48:10;20.10;99.90
20035;DHT22;10178;48.034;9.800;2022-08-19T13:50:44;20.00;99.90
20035;DHT22;10178;48.034;9.800;2022-08-19T13:53:11;20.00;99.90
20035;DHT22;10178;48.034;9.800;2022-08-19T13:55:41;20.00;99.90
20035;DHT22;10178;48.034;9.800;2022-08-19T13:58:07;19.90;99.90
20035;DHT22;10178;48.034;9.800;2022-08-19T14:00:36;19.90;99.90
20035;DHT22;10178;48.034;9.800;2022-08-19T14:03:03;19.80;99.90
20035;DHT22;10178;48.034;9.800;2022-08-19T14:05:32;19.80;99.90
20035;DHT22;10178;48.034;9.800;2022-08-19T14:07:58;19.80;99.90
20035;DHT22;10178;48.034;9.800;2022-08-19T14:10:25;19.80;99.90
20035;DHT22;10178;48.034;9.800;2022-08-19T14:12:56;19.80;99.90
20035;DHT22;10178;48.034;9.800;2022-08-19T14:15:23;19.70;99.90
20035;DHT22;10178;48.034;9.800;2022-08-19T14:17:49;19.70;99.90
20035;DHT22;10178;48.034;9.800;2022-08-19T14:20:16;19.70;99.90
20035;DHT22;10178;48.034;9.800;2022-08-19T14:22:42;19.70;99.90
20035;DHT22;10178;48.034;9.800;2022-08-19T14:25:11;19.70;99.90
20035;DHT22;10178;48.034;9.800;2022-08-19T14:27:38;19.70;99.90
20035;DHT22;10178;48.034;9.800;2022-08-19T14:30:05;19.80;99.90
20035;DHT22;10178;48.034;9.800;2022-08-19T14:32:32;19.80;99.90
20035;DHT22;10178;48.034;9.800;2022-08-19T14:34:58;19.80;99.90
20035;DHT22;10178;48.034;9.800;2022-08-19T14:37:23;19.90;99.90
20035;DHT22;10178;48.034;9.800;2022-08-19T14:39:49;19.90;99.90
20035;DHT22;10178;48.034;9.800;2022-08-19T14:42:15;19.80;99.90
20035;DHT22;10178;48.034;9.800;2022-08-19T14:44:41;19.90;99.90
20035;DHT22;10178;48.034;9.800;2022-08-19T14:47:08;19.70;99.90
20035;DHT22;10178;48.034;9.800;2022-08-19T14:49:34;19.50;99.90
20035;DHT22;10178;48.034;9.800;2022-08-19T14:52:00;19.50;99.90
20035;DHT22;10178;48.034;9.800;2022-08-19T14:54:26;19.60;99.90
20035;DHT22;10178;48.034;9.800;2022-08-19T14:56:51;19.60;99.90
20035;DHT22;10178;48.034;9.800;2022-08-19T14:59:17;19.70;99.90
20035;DHT22;10178;48.034;9.800;2022-08-19T15:01:43;19.70;99.90
20035;DHT22;10178;48.034;9.800;2022-08-19T15:04:09;19.80;99.90
20035;DHT22;10178;48.034;9.800;2022-08-19T15:06:35;19.90;99.90
20035;DHT22;10178;48.034;9.800;2022-08-19T15:09:00;19.80;99.90
20035;DHT22;10178;48.034;9.800;2022-08-19T15:11:28;19.90;99.90
20035;DHT22;10178;48.034;9.800;2022-08-19T15:13:55;19.80;99.90
20035;DHT22;10178;48.034;9.800;2022-08-19T15:16:22;19.80;99.90
20035;DHT22;10178;48.034;9.800;2022-08-19T15:18:54;19.80;99.90
20035;DHT22;10178;48.034;9.800;2022-08-19T15:21:20;19.80;99.90
20035;DHT22;10178;48.034;9.800;2022-08-19T15:23:47;19.80;99.90
20035;DHT22;10178;48.034;9.800;2022-08-19T15:26:14;19.80;99.90
20035;DHT22;10178;48.034;9.800;2022-08-19T15:28:41;19.80;99.90
20035;DHT22;10178;48.034;9.800;2022-08-19T15:31:07;19.90;99.90
20035;DHT22;10178;48.034;9.800;2022-08-19T15:33:35;19.80;99.90
20035;DHT22;10178;48.034;9.800;2022-08-19T15:36:05;19.80;99.90
20035;DHT22;10178;48.034;9.800;2022-08-19T15:38:32;19.70;99.90
20035;DHT22;10178;48.034;9.800;2022-08-19T15:41:03;19.50;99.90
20035;DHT22;10178;48.034;9.800;2022-08-19T15:43:53;19.30;99.90
20035;DHT22;10178;48.034;9.800;2022-08-19T15:46:21;19.50;99.90
20035;DHT22;10178;48.034;9.800;2022-08-19T15:48:47;19.60;99.90
20035;DHT22;10178;48.034;9.800;2022-08-19T15:51:14;19.70;99.90